Time;durP1;ratioP1;P1;durP2;ratioP2;P2;SDS_P1;SDS_P2;PMS_P1;PMS_P2;Temp;Humidity;BMP_temperature;BMP_pressure;BME280_temperature;BME280_humidity;BME280_pressure;Samples;Min_cycle;Max_cycle;Signal;HPM_P1;HPM_P2
2021/03/06 00:01:00;;;;;;;8.35;5.80;;;-2.00;99.90;;;;;;6217447;23;20051;-87
2021/03/06 00:03:38;;;;;;;10.82;6.50;;;-2.00;99.90;;;;;;6216826;23;20036;-87
2021/03/06 00:06:06;;;;;;;12.07;6.70;;;-2.00;99.90;;;;;;6190648;23;20032;-88
2021/03/06 00:08:37;;;;;;;14.88;6.72;;;-1.90;99.90;;;;;;6218956;23;20033;-89
2021/03/06 00:11:04;;;;;;;11.75;7.03;;;-1.90;99.90;;;;;;6217024;23;20021;-88
2021/03/06 00:13:41;;;;;;;16.58;7.47;;;-2.00;99.90;;;;;;6216730;23;20028;-88
2021/03/06 00:16:10;;;;;;;12.57;7.32;;;-2.00;99.90;;;;;;6217104;23;20021;-90
2021/03/06 00:18:42;;;;;;;12.02;7.35;;;-2.10;99.90;;;;;;6190333;23;20031;-90
2021/03/06 00:21:08;;;;;;;9.90;7.13;;;-2.10;99.90;;;;;;6216830;23;20111;-88
2021/03/06 00:23:45;;;;;;;10.25;7.32;;;-2.10;99.90;;;;;;6171307;23;20024;-87
2021/03/06 00:26:14;;;;;;;12.77;7.35;;;-2.10;99.90;;;;;;6216473;23;20324;-87
2021/03/06 00:28:45;;;;;;;12.82;7.72;;;-2.10;99.90;;;;;;6190397;23;20362;-88
2021/03/06 00:31:11;;;;;;;11.35;7.15;;;-2.10;99.90;;;;;;6190386;23;20083;-88
2021/03/06 00:33:38;;;;;;;10.65;7.15;;;-2.10;99.90;;;;;;6216515;23;20052;-88
2021/03/06 00:36:09;;;;;;;14.87;7.60;;;-2.20;99.90;;;;;;6192428;23;20028;-88
2021/03/06 00:38:36;;;;;;;11.63;7.18;;;-2.20;99.90;;;;;;6191719;23;20247;-90
2021/03/06 00:41:05;;;;;;;12.00;7.40;;;-2.10;99.90;;;;;;6219599;23;20035;-89
2021/03/06 00:43:40;;;;;;;13.73;7.40;;;-2.10;99.90;;;;;;6199550;23;20025;-88
2021/03/06 00:46:07;;;;;;;10.95;7.43;;;-2.10;99.90;;;;;;6219548;23;20021;-88
2021/03/06 00:48:36;;;;;;;10.02;6.95;;;-2.20;99.90;;;;;;6216807;23;20103;-88
2021/03/06 00:51:03;;;;;;;16.38;7.55;;;-2.10;99.90;;;;;;6166722;23;20024;-89
2021/03/06 00:53:30;;;;;;;12.32;7.68;;;-2.20;99.90;;;;;;6216900;23;20036;-89
2021/03/06 00:56:04;;;;;;;11.25;7.18;;;-2.20;99.90;;;;;;6190959;23;20451;-87
2021/03/06 00:58:33;;;;;;;10.73;7.57;;;-2.30;99.90;;;;;;6215671;23;20024;-89
2021/03/06 01:01:03;;;;;;;11.85;7.55;;;-2.30;99.90;;;;;;6165212;23;20078;-88
2021/03/06 01:03:42;;;;;;;10.00;6.95;;;-2.30;99.90;;;;;;6190165;23;20025;-90
2021/03/06 01:06:08;;;;;;;13.13;7.25;;;-2.30;99.90;;;;;;6167990;23;20024;-89
2021/03/06 01:08:37;;;;;;;11.85;7.63;;;-2.30;99.90;;;;;;6190218;23;20112;-88
2021/03/06 01:11:04;;;;;;;10.68;7.40;;;-2.30;99.90;;;;;;6192329;23;20048;-88
2021/03/06 01:13:33;;;;;;;11.68;7.50;;;-2.30;99.90;;;;;;6218333;23;20024;-87
2021/03/06 01:16:03;;;;;;;10.30;7.07;;;-2.30;99.90;;;;;;6217809;23;20021;-91
2021/03/06 01:18:29;;;;;;;13.68;6.97;;;-2.30;99.90;;;;;;6218644;23;20032;-87
2021/03/06 01:20:59;;;;;;;10.25;7.47;;;-2.30;99.90;;;;;;6217570;23;20067;-88
2021/03/06 01:23:26;;;;;;;12.38;7.20;;;-2.30;99.90;;;;;;6218259;23;20025;-88
2021/03/06 01:25:55;;;;;;;9.85;7.28;;;-2.30;99.90;;;;;;6217481;23;20024;-89
2021/03/06 01:28:23;;;;;;;11.10;6.75;;;-2.30;99.90;;;;;;6218234;23;20016;-89
2021/03/06 01:30:50;;;;;;;11.32;8.23;;;-2.40;99.90;;;;;;6192446;23;20020;-88
2021/03/06 01:33:17;;;;;;;11.23;7.60;;;-2.40;99.90;;;;;;6218353;23;20324;-88
2021/03/06 01:35:44;;;;;;;15.10;7.63;;;-2.40;99.90;;;;;;6220050;23;20021;-88
2021/03/06 01:38:10;;;;;;;12.88;7.82;;;-2.40;99.90;;;;;;6222810;23;20024;-88
2021/03/06 01:40:40;;;;;;;10.65;6.60;;;-2.40;99.90;;;;;;6227406;23;20086;-87
2021/03/06 01:43:10;;;;;;;11.32;7.05;;;-2.40;99.90;;;;;;6228960;23;20021;-88
2021/03/06 01:45:38;;;;;;;10.43;7.85;;;-2.40;99.90;;;;;;6223211;23;20332;-93
2021/03/06 01:48:05;;;;;;;9.52;6.85;;;-2.50;99.90;;;;;;6218927;23;20031;-87
2021/03/06 01:50:41;;;;;;;11.75;7.53;;;-2.50;99.90;;;;;;6218577;23;20374;-90
2021/03/06 01:53:10;;;;;;;10.88;7.47;;;-2.50;99.90;;;;;;6217399;23;20387;-87
2021/03/06 01:55:42;;;;;;;8.82;7.13;;;-2.50;99.90;;;;;;6217139;23;20052;-89
2021/03/06 01:58:13;;;;;;;;;;;-2.50;99.90;;;;;;6217788;23;20048;-90
2021/03/06 02:00:40;;;;;;;11.95;6.85;;;-2.60;99.90;;;;;;6216509;23;20251;-90
2021/03/06 02:03:06;;;;;;;12.65;7.57;;;-2.60;99.90;;;;;;6215795;23;20028;-88
2021/03/06 02:05:39;;;;;;;10.75;7.10;;;-2.60;99.90;;;;;;6217741;23;20036;-89
2021/03/06 02:08:05;;;;;;;;;;;-2.60;99.90;;;;;;6169224;23;20020;-89
2021/03/06 02:10:37;;;;;;;10.45;6.65;;;-2.50;99.90;;;;;;6193429;23;19985;-90
2021/03/06 02:13:21;;;;;;;9.73;6.97;;;-2.50;99.90;;;;;;6217286;23;20086;-89
2021/03/06 02:16:10;;;;;;;12.20;7.15;;;-2.50;99.90;;;;;;6217080;23;20088;-89
2021/03/06 02:18:41;;;;;;;8.82;6.85;;;-2.50;99.90;;;;;;6217330;23;20095;-89
2021/03/06 02:21:41;;;;;;;11.90;6.57;;;-2.50;99.90;;;;;;6216549;23;20047;-88
2021/03/06 02:24:22;;;;;;;11.52;7.20;;;-2.50;99.90;;;;;;6216969;23;20035;-89
2021/03/06 02:27:13;;;;;;;16.38;7.38;;;-2.50;99.90;;;;;;6216633;23;20024;-89
2021/03/06 02:30:13;;;;;;;11.70;7.68;;;-2.60;99.90;;;;;;6217797;23;20016;-88
2021/03/06 02:32:47;;;;;;;8.07;6.43;;;-2.60;99.90;;;;;;6217609;23;20089;-89
2021/03/06 02:35:22;;;;;;;11.60;7.60;;;-2.60;99.90;;;;;;6217094;23;20415;-89
2021/03/06 02:38:04;;;;;;;8.20;7.00;;;-2.60;99.90;;;;;;6219824;23;20028;-87
2021/03/06 02:40:40;;;;;;;17.30;7.00;;;-2.70;99.90;;;;;;6223282;23;20067;-88
2021/03/06 02:43:09;;;;;;;10.30;6.75;;;-2.70;99.90;;;;;;6196777;23;20535;-87
2021/03/06 02:45:38;;;;;;;15.20;7.78;;;-2.70;99.90;;;;;;6217416;23;20087;-88
2021/03/06 02:48:09;;;;;;;10.32;6.90;;;-2.70;99.90;;;;;;6216764;23;20416;-89
2021/03/06 02:50:41;;;;;;;10.10;6.43;;;-2.70;99.90;;;;;;6216208;23;20254;-89
2021/03/06 02:53:08;;;;;;;11.52;6.97;;;-2.80;99.90;;;;;;6216248;23;20428;-87
2021/03/06 02:55:41;;;;;;;13.10;7.22;;;-2.80;99.90;;;;;;6216361;23;20028;-87
2021/03/06 02:58:10;;;;;;;10.95;7.15;;;-2.80;99.90;;;;;;6190278;23;20371;-87
2021/03/06 03:01:32;;;;;;;10.43;6.90;;;-2.80;99.90;;;;;;6216019;23;20051;-88
2021/03/06 03:04:12;;;;;;;8.48;6.40;;;-2.80;99.90;;;;;;6207292;23;20022;-88
2021/03/06 03:06:43;;;;;;;13.48;7.97;;;-2.90;99.90;;;;;;6216050;23;20378;-89
2021/03/06 03:09:27;;;;;;;10.82;7.60;;;-2.90;99.90;;;;;;6216302;23;20017;-89
2021/03/06 03:12:02;;;;;;;10.93;7.65;;;-3.00;99.90;;;;;;6219748;23;20059;-87
2021/03/06 03:14:56;;;;;;;10.38;7.20;;;-3.10;99.90;;;;;;6216799;23;20020;-88
2021/03/06 03:17:32;;;;;;;9.52;7.10;;;-3.20;99.90;;;;;;6219855;23;20024;-88
2021/03/06 03:20:04;;;;;;;10.45;7.43;;;-3.20;99.90;;;;;;6192652;23;20087;-89
2021/03/06 03:22:37;;;;;;;14.95;8.05;;;-3.30;99.90;;;;;;6215657;23;20075;-89
2021/03/06 03:25:11;;;;;;;10.13;7.40;;;-3.30;99.90;;;;;;6189783;23;20025;-89
2021/03/06 03:27:39;;;;;;;8.75;6.68;;;-3.40;99.90;;;;;;6215703;23;20195;-89
2021/03/06 03:30:08;;;;;;;10.38;7.88;;;-3.40;99.90;;;;;;6215946;23;20028;-88
2021/03/06 03:32:39;;;;;;;14.80;8.02;;;-3.30;99.90;;;;;;6218487;23;20108;-88
2021/03/06 03:35:12;;;;;;;9.20;7.47;;;-3.40;99.90;;;;;;6169280;23;20017;-88
2021/03/06 03:37:41;;;;;;;10.90;7.72;;;-3.40;99.90;;;;;;6198865;23;20094;-88
2021/03/06 03:40:10;;;;;;;10.82;7.90;;;-3.40;99.90;;;;;;6199207;23;20020;-88
2021/03/06 03:42:39;;;;;;;10.88;7.80;;;-3.40;99.90;;;;;;6194324;23;20052;-88
2021/03/06 03:45:09;;;;;;;9.02;7.55;;;-3.40;99.90;;;;;;6216573;23;20021;-88
2021/03/06 03:47:39;;;;;;;11.35;7.68;;;-3.40;99.90;;;;;;6215486;23;20301;-88
2021/03/06 03:50:08;;;;;;;11.27;7.95;;;-3.50;99.90;;;;;;6215896;23;20024;-87
2021/03/06 03:52:50;;;;;;;10.70;7.38;;;-3.50;99.90;;;;;;6192432;23;20428;-89
2021/03/06 03:55:19;;;;;;;10.43;7.88;;;-3.40;99.90;;;;;;6215878;23;20025;-90
2021/03/06 03:57:54;;;;;;;13.90;7.72;;;-3.40;99.90;;;;;;6216768;23;20401;-87
2021/03/06 04:00:23;;;;;;;12.90;7.82;;;-3.30;99.90;;;;;;6189969;23;20025;-88
2021/03/06 04:02:50;;;;;;;10.77;7.97;;;-3.30;99.90;;;;;;6215937;23;20016;-87
2021/03/06 04:05:17;;;;;;;10.48;7.20;;;-3.40;99.90;;;;;;6215493;23;20032;-89
2021/03/06 04:07:50;;;;;;;11.50;7.82;;;-3.40;99.90;;;;;;6189516;23;20032;-88
2021/03/06 04:10:24;;;;;;;11.18;7.45;;;-3.40;99.90;;;;;;6215974;23;20085;-88
2021/03/06 04:12:56;;;;;;;9.98;7.47;;;-3.40;99.90;;;;;;6215758;23;20428;-87
2021/03/06 04:15:24;;;;;;;11.30;7.28;;;-3.40;99.90;;;;;;6216381;23;20055;-89
2021/03/06 04:17:54;;;;;;;10.90;7.88;;;-3.50;99.90;;;;;;6170436;23;20016;-89
2021/03/06 04:20:22;;;;;;;8.50;7.30;;;-3.50;99.90;;;;;;6217721;23;20106;-89
2021/03/06 04:22:48;;;;;;;11.00;7.07;;;-3.50;99.90;;;;;;6192417;23;20082;-87
2021/03/06 04:25:16;;;;;;;11.10;7.05;;;-3.50;99.90;;;;;;6192976;23;20078;-89
2021/03/06 04:27:44;;;;;;;10.85;7.47;;;-3.50;99.90;;;;;;6198370;23;20021;-89
2021/03/06 04:30:12;;;;;;;12.50;7.80;;;-3.60;99.90;;;;;;6196301;23;20332;-89
2021/03/06 04:32:39;;;;;;;9.15;7.22;;;-3.60;99.90;;;;;;6188858;23;20076;-87
2021/03/06 04:35:10;;;;;;;11.60;8.15;;;-3.70;99.90;;;;;;6187811;23;20024;-88
2021/03/06 04:37:37;;;;;;;10.55;8.27;;;-3.70;99.90;;;;;;6187128;23;20025;-89
2021/03/06 04:40:09;;;;;;;13.60;7.65;;;-3.80;99.90;;;;;;6187110;23;20025;-89
2021/03/06 04:42:40;;;;;;;15.85;8.10;;;-3.80;99.90;;;;;;6188074;23;20053;-88
2021/03/06 04:45:11;;;;;;;11.93;8.00;;;-3.90;99.90;;;;;;6188442;23;20154;-89
2021/03/06 04:47:45;;;;;;;11.43;8.05;;;-3.90;99.90;;;;;;6188167;23;20103;-88
2021/03/06 04:50:13;;;;;;;11.70;8.48;;;-3.90;99.90;;;;;;6188192;23;20028;-89
2021/03/06 04:52:40;;;;;;;10.40;7.45;;;-4.00;99.90;;;;;;6187300;23;20440;-90
2021/03/06 04:55:08;;;;;;;12.07;8.48;;;-4.10;99.90;;;;;;6188202;23;20040;-87
2021/03/06 04:57:37;;;;;;;13.30;8.20;;;-4.10;99.90;;;;;;6187483;23;20021;-89
2021/03/06 05:00:07;;;;;;;9.52;7.93;;;-4.20;99.90;;;;;;6187413;23;20385;-89
2021/03/06 05:02:36;;;;;;;15.73;8.77;;;-4.20;99.90;;;;;;6187159;23;20361;-90
2021/03/06 05:05:14;;;;;;;21.65;12.40;;;-4.20;99.90;;;;;;6186673;23;20021;-88
2021/03/06 05:07:42;;;;;;;11.15;8.35;;;-4.20;99.90;;;;;;6187511;23;20385;-88
2021/03/06 05:10:11;;;;;;;10.93;8.65;;;-4.20;99.90;;;;;;6187116;23;20016;-89
2021/03/06 05:12:37;;;;;;;14.88;8.88;;;-4.30;99.90;;;;;;6186024;23;20097;-88
2021/03/06 05:15:05;;;;;;;14.05;8.52;;;-4.40;99.90;;;;;;6137913;23;20029;-89
2021/03/06 05:17:32;;;;;;;13.98;8.93;;;-4.40;99.90;;;;;;6187248;23;20140;-88
2021/03/06 05:19:59;;;;;;;14.98;8.80;;;-4.40;99.90;;;;;;6190585;23;20035;-89
2021/03/06 05:22:26;;;;;;;15.07;9.23;;;-4.50;99.90;;;;;;6185775;23;20028;-88
2021/03/06 05:24:54;;;;;;;13.40;9.02;;;-4.60;99.90;;;;;;6187176;23;20051;-89
2021/03/06 05:27:30;;;;;;;14.45;9.82;;;-4.60;99.90;;;;;;6215906;23;20380;-88
2021/03/06 05:30:01;;;;;;;16.27;8.65;;;-4.60;99.90;;;;;;6217870;23;20024;-88
2021/03/06 05:32:27;;;;;;;12.75;9.05;;;-4.50;99.90;;;;;;6191051;23;20440;-88
2021/03/06 05:34:56;;;;;;;14.32;9.10;;;-4.50;99.90;;;;;;6217490;23;20086;-88
2021/03/06 05:37:25;;;;;;;17.10;8.95;;;-4.50;99.90;;;;;;6191225;23;20100;-87
2021/03/06 05:39:51;;;;;;;15.88;10.50;;;-4.60;99.90;;;;;;6217835;23;20336;-88
2021/03/06 05:42:20;;;;;;;18.42;9.57;;;-4.50;99.90;;;;;;6220264;23;20099;-87
2021/03/06 05:44:47;;;;;;;14.48;8.85;;;-4.40;99.90;;;;;;6216663;23;20420;-89
2021/03/06 05:47:13;;;;;;;12.02;8.85;;;-4.30;99.90;;;;;;6216684;23;20148;-88
2021/03/06 05:49:40;;;;;;;11.85;8.77;;;-4.30;99.90;;;;;;6216613;23;20048;-88
2021/03/06 05:52:12;;;;;;;12.50;9.50;;;-4.30;99.90;;;;;;6217269;23;20021;-87
2021/03/06 05:54:41;;;;;;;15.82;9.15;;;-4.40;99.90;;;;;;6217275;23;20048;-89
2021/03/06 05:57:08;;;;;;;12.35;8.93;;;-4.40;99.90;;;;;;6142066;23;20031;-87
2021/03/06 05:59:40;;;;;;;12.95;9.15;;;-4.40;99.90;;;;;;6216912;23;20082;-88
2021/03/06 06:02:10;;;;;;;16.48;8.68;;;-4.40;99.90;;;;;;6191638;23;20048;-88
2021/03/06 06:04:43;;;;;;;13.70;9.63;;;-4.50;99.90;;;;;;6217426;23;20051;-88
2021/03/06 06:07:10;;;;;;;12.52;8.77;;;-4.40;99.90;;;;;;6217319;23;20078;-87
2021/03/06 06:09:40;;;;;;;15.48;9.27;;;-4.40;99.90;;;;;;6190032;23;20076;-88
2021/03/06 06:12:09;;;;;;;16.00;9.38;;;-4.40;99.90;;;;;;6217320;23;20377;-89
2021/03/06 06:14:40;;;;;;;17.08;10.20;;;-4.40;99.90;;;;;;6217783;23;20020;-88
2021/03/06 06:17:13;;;;;;;18.45;9.13;;;-4.40;99.90;;;;;;6191714;23;20021;-88
2021/03/06 06:19:40;;;;;;;10.52;7.43;;;-4.40;99.90;;;;;;6218431;23;20025;-87
2021/03/06 06:22:17;;;;;;;13.65;9.38;;;-4.30;99.90;;;;;;6195287;23;20095;-88
2021/03/06 06:24:48;;;;;;;14.65;9.65;;;-4.30;99.90;;;;;;6226015;23;20079;-87
2021/03/06 06:27:25;;;;;;;16.77;9.73;;;-4.20;99.90;;;;;;6218997;23;20025;-88
2021/03/06 06:29:55;;;;;;;13.57;9.40;;;-4.00;99.90;;;;;;6222597;23;20260;-88
2021/03/06 06:32:24;;;;;;;13.13;8.38;;;-3.90;99.90;;;;;;6220980;23;20490;-88
2021/03/06 06:34:57;;;;;;;10.45;7.95;;;-3.80;99.90;;;;;;6194438;23;20091;-89
2021/03/06 06:37:26;;;;;;;16.08;8.27;;;-3.70;99.90;;;;;;6218137;23;20020;-89
2021/03/06 06:39:53;;;;;;;14.65;9.15;;;-3.60;99.90;;;;;;6194360;23;20470;-90
2021/03/06 06:42:35;;;;;;;12.77;8.07;;;-3.50;99.90;;;;;;6225253;23;20025;-89
2021/03/06 06:45:07;;;;;;;15.32;9.32;;;-3.40;99.90;;;;;;6202865;23;20035;-90
2021/03/06 06:47:38;;;;;;;11.43;8.07;;;-3.30;99.90;;;;;;6230924;23;20036;-90
2021/03/06 06:50:08;;;;;;;10.40;7.80;;;-3.20;99.90;;;;;;6234390;23;20052;-91
2021/03/06 06:52:43;;;;;;;10.32;7.78;;;-3.10;99.90;;;;;;6179463;23;20052;-92
2021/03/06 06:55:42;;;;;;;15.05;8.02;;;-2.70;99.90;;;;;;6196388;23;20420;-89
2021/03/06 06:58:35;;;;;;;12.25;7.50;;;-2.20;99.90;;;;;;6218445;23;20483;-87
2021/03/06 07:01:34;;;;;;;15.05;7.32;;;-1.60;99.90;;;;;;6194128;23;20396;-89
2021/03/06 07:04:16;;;;;;;14.75;8.48;;;-1.20;99.90;;;;;;6219056;23;20048;-88
2021/03/06 07:10:41;;;;;;;9.27;6.25;;;-0.50;99.90;;;;;;6218133;23;20378;-88
2021/03/06 07:13:41;;;;;;;9.38;6.30;;;-0.30;99.90;;;;;;6220181;23;20131;-88
2021/03/06 07:16:08;;;;;;;8.07;6.28;;;-0.40;99.90;;;;;;6218703;23;20091;-87
2021/03/06 07:18:38;;;;;;;12.55;6.88;;;-0.30;99.90;;;;;;6217863;23;20029;-89
2021/03/06 07:25:31;;;;;;;8.60;5.85;;;-0.30;99.90;;;;;;6066622;23;20039;-88
2021/03/06 07:32:32;;;;;;;13.02;7.13;;;0.30;99.90;;;;;;6217276;23;20416;-89
2021/03/06 07:42:32;;;;;;;13.82;8.73;;;1.00;97.00;;;;;;6112283;23;20159;-89
2021/03/06 07:45:27;;;;;;;12.38;7.78;;;1.50;95.70;;;;;;6192952;23;20024;-88
2021/03/06 07:48:36;;;;;;;14.02;8.10;;;1.80;92.80;;;;;;6212598;23;20112;-88
2021/03/06 07:51:34;;;;;;;10.18;6.75;;;1.60;93.00;;;;;;6149913;23;20112;-89
2021/03/06 07:54:47;;;;;;;13.60;7.40;;;1.70;93.10;;;;;;6199667;23;20047;-88
2021/03/06 08:01:43;;;;;;;12.02;8.05;;;1.60;94.50;;;;;;6225481;22;20079;-89
2021/03/06 08:04:35;;;;;;;12.80;8.27;;;1.70;98.00;;;;;;6222273;23;20020;-89
2021/03/06 08:07:37;;;;;;;12.65;8.68;;;2.00;93.70;;;;;;6231147;23;20021;-88
2021/03/06 08:14:38;;;;;;;14.98;7.40;;;3.00;89.50;;;;;;6219802;23;20044;-89
2021/03/06 08:17:33;;;;;;;11.70;7.65;;;3.60;87.50;;;;;;6220607;23;20054;-90
2021/03/06 08:20:34;;;;;;;10.45;6.93;;;3.80;84.70;;;;;;6196661;23;20067;-89
2021/03/06 08:23:33;;;;;;;13.45;6.80;;;4.30;80.60;;;;;;6199551;23;20116;-89
2021/03/06 08:26:37;;;;;;;11.95;7.55;;;4.70;78.30;;;;;;6196194;23;20381;-90
2021/03/06 08:29:28;;;;;;;11.35;8.25;;;5.00;74.50;;;;;;6226966;23;20419;-90
2021/03/06 08:32:39;;;;;;;9.07;6.88;;;5.60;73.30;;;;;;6224411;23;20412;-90
2021/03/06 08:35:33;;;;;;;10.00;7.50;;;5.90;70.90;;;;;;6227322;23;20016;-89
2021/03/06 08:42:31;;;;;;;9.43;6.78;;;6.10;70.90;;;;;;6210529;23;20028;-92
2021/03/06 08:45:30;;;;;;;10.98;7.28;;;5.80;69.90;;;;;;6221499;23;20024;-91
2021/03/06 08:48:30;;;;;;;8.68;7.47;;;5.70;71.60;;;;;;6099674;23;20025;-92
2021/03/06 08:51:08;;;;;;;10.88;7.90;;;5.70;70.00;;;;;;6197734;23;20039;-91
2021/03/06 08:53:38;;;;;;;10.13;7.30;;;6.00;70.40;;;;;;6171052;23;20038;-89
2021/03/06 08:56:05;;;;;;;9.52;6.70;;;6.30;68.30;;;;;;6223774;23;20024;-89
2021/03/06 08:58:46;;;;;;;9.30;7.68;;;6.40;68.90;;;;;;6222604;23;20021;-89
2021/03/06 09:01:12;;;;;;;11.32;8.00;;;6.40;69.10;;;;;;6199143;23;20016;-90
2021/03/06 09:03:39;;;;;;;11.20;8.18;;;5.90;67.10;;;;;;6196991;23;20021;-88
2021/03/06 09:06:08;;;;;;;12.18;7.75;;;6.10;69.40;;;;;;6223929;23;20027;-91
2021/03/06 09:08:43;;;;;;;10.05;7.13;;;6.40;67.60;;;;;;6221951;23;20381;-88
2021/03/06 09:11:12;;;;;;;9.68;7.13;;;6.70;65.80;;;;;;6224317;23;20087;-91
2021/03/06 09:13:38;;;;;;;11.18;7.68;;;6.90;64.70;;;;;;6198253;23;20048;-89
2021/03/06 09:16:06;;;;;;;11.15;7.53;;;6.90;66.70;;;;;;6199157;23;20099;-90
2021/03/06 09:18:38;;;;;;;11.48;8.07;;;7.00;65.90;;;;;;6198610;23;20106;-90
2021/03/06 09:21:23;;;;;;;9.20;7.30;;;7.10;65.40;;;;;;6225094;23;20021;-90
2021/03/06 09:23:53;;;;;;;9.80;7.20;;;7.40;63.20;;;;;;6223882;23;20032;-89
2021/03/06 09:26:28;;;;;;;11.07;6.90;;;7.60;63.10;;;;;;6223237;23;20040;-90
2021/03/06 09:28:56;;;;;;;9.32;6.50;;;7.90;61.50;;;;;;6221764;23;20024;-92
2021/03/06 09:31:34;;;;;;;8.85;7.28;;;7.90;60.50;;;;;;6224142;23;20021;-90
2021/03/06 09:34:09;;;;;;;10.45;7.32;;;7.40;60.90;;;;;;6199031;23;20031;-90
2021/03/06 09:36:41;;;;;;;7.38;6.32;;;7.70;61.30;;;;;;6196146;23;20030;-90
2021/03/06 09:39:09;;;;;;;8.77;6.72;;;8.00;60.70;;;;;;6226405;23;20035;-91
2021/03/06 09:41:42;;;;;;;10.35;7.18;;;8.60;58.60;;;;;;6197829;23;20024;-90
2021/03/06 09:44:12;;;;;;;9.77;6.97;;;8.80;56.80;;;;;;6223995;23;20055;-91
2021/03/06 09:46:38;;;;;;;9.52;6.95;;;9.00;58.40;;;;;;6199944;23;20020;-91
2021/03/06 09:49:11;;;;;;;8.05;6.90;;;8.70;57.50;;;;;;6225414;23;20026;-90
2021/03/06 09:51:40;;;;;;;9.82;6.35;;;9.00;56.80;;;;;;6174512;23;20051;-90
2021/03/06 09:54:11;;;;;;;9.05;6.70;;;9.30;56.10;;;;;;6196131;23;20020;-91
2021/03/06 09:57:06;;;;;;;11.48;7.43;;;9.50;56.60;;;;;;6221134;23;20058;-88
2021/03/06 09:59:39;;;;;;;7.40;6.57;;;9.70;55.00;;;;;;6217418;23;20024;-90
2021/03/06 10:02:14;;;;;;;9.25;6.88;;;9.90;54.90;;;;;;6197920;23;20104;-91
2021/03/06 10:04:46;;;;;;;7.82;6.38;;;9.70;53.60;;;;;;6219925;23;20090;-90
2021/03/06 10:07:13;;;;;;;7.70;6.30;;;10.60;52.60;;;;;;6219869;23;20020;-90
2021/03/06 10:09:41;;;;;;;7.82;6.03;;;10.90;51.00;;;;;;6225088;23;20016;-90
2021/03/06 10:12:16;;;;;;;9.48;6.00;;;10.80;49.90;;;;;;6199893;23;20379;-90
2021/03/06 10:14:51;;;;;;;;;;;10.60;51.50;;;;;;6230874;23;20016;-90
2021/03/06 10:17:27;;;;;;;7.35;5.30;;;10.90;49.60;;;;;;6226255;23;19924;-89
2021/03/06 10:19:58;;;;;;;6.65;5.45;;;10.30;50.70;;;;;;6229028;23;20025;-91
2021/03/06 10:22:25;;;;;;;7.20;5.38;;;10.50;49.70;;;;;;6223690;23;20020;-91
2021/03/06 10:25:03;;;;;;;10.80;6.65;;;10.40;50.20;;;;;;6222714;23;20087;-91
2021/03/06 10:27:33;;;;;;;7.60;5.53;;;9.80;50.20;;;;;;6225143;23;20076;-90
2021/03/06 10:30:11;;;;;;;14.13;9.02;;;9.90;49.90;;;;;;6206490;23;20024;-90
2021/03/06 10:32:44;;;;;;;7.50;5.35;;;9.80;51.40;;;;;;6223192;23;20013;-91
2021/03/06 10:35:44;;;;;;;6.93;5.07;;;9.90;49.10;;;;;;6222767;23;20017;-90
2021/03/06 10:38:28;;;;;;;7.10;5.45;;;9.90;50.10;;;;;;6223132;23;20021;-91
2021/03/06 10:40:57;;;;;;;6.32;5.15;;;10.70;49.00;;;;;;6219854;23;20028;-91
2021/03/06 10:43:40;;;;;;;6.47;4.95;;;10.80;47.20;;;;;;6222446;23;20021;-92
2021/03/06 10:46:20;;;;;;;5.53;4.15;;;11.50;47.10;;;;;;6223684;23;20027;-90
2021/03/06 10:48:59;;;;;;;7.68;4.10;;;11.30;46.40;;;;;;6222053;23;20017;-91
2021/03/06 10:51:52;;;;;;;5.50;4.03;;;11.10;44.30;;;;;;6224287;23;20058;-91
2021/03/06 10:54:22;;;;;;;8.15;4.13;;;10.80;45.50;;;;;;6226656;23;20072;-90
2021/03/06 10:57:07;;;;;;;5.13;4.40;;;11.00;45.30;;;;;;6224425;23;20319;-90
2021/03/06 10:59:44;;;;;;;5.53;4.45;;;11.60;45.70;;;;;;6224970;23;20512;-91
2021/03/06 11:02:26;;;;;;;5.55;4.93;;;11.40;44.90;;;;;;6224571;23;20024;-91
2021/03/06 11:04:54;;;;;;;6.40;4.53;;;11.00;45.90;;;;;;6225597;23;20048;-91
2021/03/06 11:07:28;;;;;;;6.95;4.20;;;11.10;46.80;;;;;;6225356;23;20048;-93
2021/03/06 11:10:18;;;;;;;5.03;4.30;;;11.70;44.30;;;;;;6224670;23;20016;-91
2021/03/06 11:12:58;;;;;;;6.80;4.63;;;12.10;44.70;;;;;;6226601;23;20025;-90
2021/03/06 11:15:51;;;;;;;6.55;4.55;;;12.00;43.20;;;;;;6220591;23;20096;-91
2021/03/06 11:18:19;;;;;;;6.55;4.50;;;12.00;43.20;;;;;;6224582;23;20017;-90
2021/03/06 11:23:47;;;;;;;4.60;4.13;;;12.30;43.10;;;;;;6200769;23;20024;-93
2021/03/06 11:26:14;;;;;;;4.88;4.05;;;12.60;43.80;;;;;;6225480;23;20028;-92
2021/03/06 11:28:43;;;;;;;5.93;4.10;;;12.20;43.70;;;;;;6225963;23;20758;-91
2021/03/06 11:31:09;;;;;;;6.15;4.90;;;12.20;43.00;;;;;;6198834;23;20428;-92
2021/03/06 11:33:37;;;;;;;6.47;4.65;;;11.30;43.50;;;;;;6199439;23;20031;-92
2021/03/06 11:36:04;;;;;;;6.35;4.75;;;11.10;45.10;;;;;;6198816;23;20056;-91
2021/03/06 11:38:37;;;;;;;7.80;4.90;;;11.70;44.40;;;;;;6200661;23;20115;-91
2021/03/06 11:41:07;;;;;;;5.82;4.50;;;12.30;43.30;;;;;;6226195;23;20025;-89
2021/03/06 11:43:37;;;;;;;6.45;4.97;;;12.30;42.70;;;;;;6224729;23;20027;-91
2021/03/06 11:46:06;;;;;;;4.65;3.90;;;12.60;41.10;;;;;;6223571;23;20016;-91
2021/03/06 11:48:42;;;;;;;5.78;4.05;;;12.90;39.00;;;;;;6221220;23;20030;-92
2021/03/06 11:51:10;;;;;;;5.75;4.45;;;12.90;40.90;;;;;;6223518;23;20021;-90
2021/03/06 11:53:36;;;;;;;5.25;4.20;;;12.90;41.50;;;;;;6197791;23;20016;-91
2021/03/06 11:56:03;;;;;;;4.95;3.90;;;12.30;40.00;;;;;;6223062;23;20021;-92
2021/03/06 11:58:33;;;;;;;5.53;4.00;;;12.10;40.90;;;;;;6224927;23;20032;-90
2021/03/06 12:01:08;;;;;;;7.45;4.03;;;11.80;41.00;;;;;;6202908;23;20055;-89
2021/03/06 12:03:38;;;;;;;4.47;3.85;;;11.90;42.20;;;;;;6180651;23;20017;-90
2021/03/06 12:06:08;;;;;;;6.40;3.53;;;12.10;40.80;;;;;;6229860;23;20063;-90
2021/03/06 12:08:34;;;;;;;5.13;3.72;;;12.40;40.60;;;;;;6228345;23;20443;-88
2021/03/06 12:11:05;;;;;;;6.28;3.72;;;13.00;38.70;;;;;;6228862;23;20422;-89
2021/03/06 12:13:38;;;;;;;4.35;3.30;;;12.30;37.90;;;;;;6175288;23;20064;-91
2021/03/06 12:16:05;;;;;;;7.70;3.30;;;12.30;37.20;;;;;;6224084;23;20028;-90
2021/03/06 12:18:45;;;;;;;7.10;3.10;;;12.50;38.20;;;;;;6200214;23;20387;-92
2021/03/06 12:21:12;;;;;;;3.88;3.10;;;12.60;36.30;;;;;;6225337;23;20068;-90
2021/03/06 12:23:38;;;;;;;5.25;3.05;;;13.20;36.80;;;;;;6175227;23;20330;-91
2021/03/06 12:26:09;;;;;;;4.68;3.00;;;13.20;34.40;;;;;;6224619;23;20028;-90
2021/03/06 12:28:42;;;;;;;3.08;2.78;;;12.90;35.50;;;;;;6198264;23;20025;-90
2021/03/06 12:31:15;;;;;;;3.88;2.95;;;13.00;36.00;;;;;;6199599;23;20025;-91
2021/03/06 12:33:43;;;;;;;4.60;2.90;;;13.20;35.20;;;;;;6176012;23;20029;-88
2021/03/06 12:36:12;;;;;;;5.85;3.40;;;12.90;34.20;;;;;;6224599;23;20451;-90
2021/03/06 12:38:39;;;;;;;2.88;2.40;;;13.10;35.30;;;;;;6196557;23;20100;-89
2021/03/06 12:41:05;;;;;;;3.55;3.17;;;12.80;35.00;;;;;;6199128;23;20017;-90
2021/03/06 12:43:33;;;;;;;3.78;3.03;;;12.80;33.50;;;;;;6225603;23;20099;-90
2021/03/06 12:46:01;;;;;;;4.13;2.97;;;12.80;35.00;;;;;;6205453;23;20024;-89
2021/03/06 12:48:38;;;;;;;3.92;2.58;;;13.00;35.70;;;;;;6208817;23;20020;-88
2021/03/06 12:51:05;;;;;;;3.97;2.58;;;12.70;33.80;;;;;;6199609;23;20016;-90
2021/03/06 12:53:37;;;;;;;3.38;3.03;;;13.30;33.70;;;;;;6225720;23;20021;-89
2021/03/06 12:56:06;;;;;;;2.60;2.40;;;13.20;32.70;;;;;;6226114;23;20020;-90
2021/03/06 12:58:38;;;;;;;3.03;2.50;;;12.90;32.90;;;;;;6225589;23;20051;-90
2021/03/06 13:01:05;;;;;;;3.05;2.30;;;12.40;32.80;;;;;;6224977;23;20423;-89
2021/03/06 13:03:34;;;;;;;3.70;2.30;;;12.20;33.10;;;;;;6224094;23;20096;-88
2021/03/06 13:06:02;;;;;;;4.50;1.85;;;12.40;33.30;;;;;;6225283;23;20088;-90
2021/03/06 13:08:28;;;;;;;2.22;2.03;;;12.10;31.70;;;;;;6224958;23;20090;-91
2021/03/06 13:10:56;;;;;;;4.00;2.20;;;12.30;31.40;;;;;;6198595;23;20051;-89
2021/03/06 13:13:23;;;;;;;6.57;2.88;;;12.50;32.20;;;;;;6224346;23;20031;-92
2021/03/06 13:15:50;;;;;;;4.05;2.45;;;13.00;32.40;;;;;;6225976;23;20099;-90
2021/03/06 13:18:16;;;;;;;4.72;2.40;;;13.00;32.20;;;;;;6198760;23;20439;-90
2021/03/06 13:20:43;;;;;;;2.80;2.25;;;13.40;31.90;;;;;;6226875;23;20032;-92
2021/03/06 13:23:10;;;;;;;3.30;2.35;;;12.70;30.40;;;;;;6223390;23;20017;-90
2021/03/06 13:25:40;;;;;;;1.80;1.70;;;12.70;31.60;;;;;;6196035;23;20049;-91
2021/03/06 13:28:10;;;;;;;2.38;2.03;;;13.20;30.30;;;;;;6224493;23;20051;-90
2021/03/06 13:30:37;;;;;;;3.67;2.38;;;13.20;31.60;;;;;;6219611;23;20087;-89
2021/03/06 13:33:19;;;;;;;2.60;1.92;;;13.80;31.00;;;;;;6218150;23;20020;-89
2021/03/06 13:35:47;;;;;;;1.83;1.73;;;14.00;31.10;;;;;;6217315;23;20075;-89
2021/03/06 13:38:13;;;;;;;3.08;1.63;;;13.50;28.60;;;;;;6217686;23;20435;-89
2021/03/06 13:40:42;;;;;;;3.10;2.17;;;12.70;30.20;;;;;;6219379;23;20028;-91
2021/03/06 13:43:11;;;;;;;2.08;1.77;;;12.60;30.70;;;;;;6195847;23;20017;-89
2021/03/06 13:45:39;;;;;;;3.95;2.00;;;12.90;30.40;;;;;;6218499;23;20023;-91
2021/03/06 13:48:11;;;;;;;1.98;1.75;;;12.90;30.40;;;;;;6217696;23;20017;-91
2021/03/06 13:50:40;;;;;;;2.65;2.03;;;12.70;29.10;;;;;;6219294;23;20316;-91